Time;durP1;ratioP1;P1;durP2;ratioP2;P2;SDS_P1;SDS_P2;PMS_P1;PMS_P2;Temp;Humidity;BMP_temperature;BMP_pressure;BME280_temperature;BME280_humidity;BME280_pressure;Samples;Min_cycle;Max_cycle;Signal;HPM_P1;HPM_P2
2022/11/05 00:09:45;;;;;;;1.17;1.08;;;18.70;54.20;;;;;;5115336;28;20526;-11
2022/11/05 00:17:52;;;;;;;1.48;1.05;;;18.70;54.20;;;;;;5115537;28;20046;-11
2022/11/05 00:20:17;;;;;;;1.42;1.10;;;18.80;54.20;;;;;;5115422;28;20044;-11
2022/11/05 00:25:29;;;;;;;0.98;0.90;;;18.70;54.20;;;;;;5115414;28;20495;-11
2022/11/05 00:28:00;;;;;;;1.20;1.10;;;18.80;54.20;;;;;;5115065;28;20059;-11
2022/11/05 00:30:27;;;;;;;1.38;1.05;;;18.70;54.20;;;;;;5113353;28;20058;-11
2022/11/05 00:32:53;;;;;;;1.25;1.15;;;18.70;54.20;;;;;;5114958;28;20047;-11
2022/11/05 00:35:21;;;;;;;1.23;1.05;;;18.70;54.20;;;;;;5114899;28;20047;-11
2022/11/05 00:37:46;;;;;;;1.13;1.00;;;18.70;54.20;;;;;;5114911;28;20059;-11
2022/11/05 00:40:13;;;;;;;1.33;1.05;;;18.70;54.20;;;;;;5114920;28;20047;-11
2022/11/05 00:45:29;;;;;;;1.35;1.00;;;18.70;54.20;;;;;;5114967;28;20050;-11
2022/11/05 00:50:39;;;;;;;1.08;0.90;;;18.70;54.30;;;;;;5114708;28;20507;-11
2022/11/05 00:53:05;;;;;;;1.25;1.15;;;18.70;54.30;;;;;;5114828;28;20180;-11
2022/11/05 00:55:37;;;;;;;1.13;1.02;;;18.70;54.30;;;;;;5114573;28;20051;-11
2022/11/05 00:58:05;;;;;;;2.15;1.30;;;18.70;54.30;;;;;;5114651;28;20055;-11
2022/11/05 01:00:33;;;;;;;1.00;0.90;;;18.70;54.30;;;;;;5114437;28;20050;-11
2022/11/05 01:03:07;;;;;;;1.50;1.10;;;18.70;54.30;;;;;;5115077;28;20047;-11
2022/11/05 01:05:36;;;;;;;1.50;1.17;;;18.70;54.30;;;;;;5114720;28;20054;-11
2022/11/05 01:08:02;;;;;;;1.38;1.20;;;18.70;54.30;;;;;;5114102;28;20481;-11
2022/11/05 01:10:28;;;;;;;1.58;1.20;;;18.70;54.40;;;;;;5114299;28;20047;-11
2022/11/05 01:12:54;;;;;;;1.13;0.95;;;18.70;54.30;;;;;;5114263;28;20139;-11
2022/11/05 01:15:20;;;;;;;1.42;1.30;;;18.70;54.30;;;;;;5114283;28;20051;-11
2022/11/05 01:17:46;;;;;;;1.45;1.27;;;18.70;54.30;;;;;;5114110;28;20052;-11
2022/11/05 01:20:12;;;;;;;1.85;1.20;;;18.70;54.30;;;;;;5114192;28;20503;-11
2022/11/05 01:22:37;;;;;;;1.05;0.90;;;18.70;54.30;;;;;;5114130;28;20077;-11
2022/11/05 01:25:03;;;;;;;1.17;1.08;;;18.70;54.30;;;;;;5114072;28;20044;-11
2022/11/05 01:27:29;;;;;;;2.33;1.20;;;18.70;54.30;;;;;;5114437;28;20058;-12
2022/11/05 01:29:55;;;;;;;1.88;1.15;;;18.70;54.30;;;;;;5114118;28;20047;-11
2022/11/05 01:32:20;;;;;;;1.65;1.10;;;18.70;54.30;;;;;;5114100;28;20388;-11
2022/11/05 01:34:47;;;;;;;1.17;1.08;;;18.70;54.30;;;;;;5095665;28;20039;-11
2022/11/05 01:37:12;;;;;;;0.93;0.80;;;18.70;54.30;;;;;;5114138;28;20052;-11
2022/11/05 01:39:38;;;;;;;1.02;1.00;;;18.70;54.30;;;;;;5113947;28;20395;-11
2022/11/05 01:42:13;;;;;;;1.55;1.10;;;18.60;54.30;;;;;;5114022;28;20490;-11
2022/11/05 01:44:58;;;;;;;1.70;1.33;;;18.60;54.30;;;;;;5113708;28;20043;-11
2022/11/05 01:47:43;;;;;;;1.63;1.30;;;18.70;54.30;;;;;;5114097;28;20399;-11
2022/11/05 01:50:30;;;;;;;1.80;1.20;;;18.70;54.30;;;;;;5111017;28;20135;-11
2022/11/05 01:53:27;;;;;;;1.63;1.15;;;18.60;54.30;;;;;;5113926;28;20134;-11
2022/11/05 01:56:01;;;;;;;2.47;1.10;;;18.70;54.30;;;;;;5071452;28;20073;-11
2022/11/05 01:58:32;;;;;;;1.38;1.10;;;18.60;54.30;;;;;;5113308;28;20109;-11
2022/11/05 02:00:58;;;;;;;2.75;1.50;;;18.60;54.30;;;;;;5113380;28;20079;-11
2022/11/05 02:03:25;;;;;;;1.63;1.08;;;18.60;54.30;;;;;;5113299;28;20090;-11
2022/11/05 02:05:53;;;;;;;1.63;1.10;;;18.60;54.50;;;;;;5113232;28;20159;-11
2022/11/05 02:08:33;;;;;;;1.45;1.10;;;18.60;54.30;;;;;;5113076;28;20055;-11
2022/11/05 02:10:59;;;;;;;1.30;1.10;;;18.60;54.30;;;;;;5113121;28;20094;-11
2022/11/05 02:13:24;;;;;;;1.40;1.05;;;18.60;54.30;;;;;;5113352;28;20083;-11
2022/11/05 02:16:03;;;;;;;1.85;1.23;;;18.60;54.30;;;;;;5113032;28;20056;-11
2022/11/05 02:19:01;;;;;;;1.98;1.20;;;18.60;54.30;;;;;;5111613;28;20078;-11
2022/11/05 02:21:44;;;;;;;1.08;0.90;;;18.60;54.30;;;;;;5108235;28;20055;-11
2022/11/05 02:24:40;;;;;;;1.70;1.05;;;18.60;54.30;;;;;;5113419;28;20044;-10
2022/11/05 02:27:25;;;;;;;1.30;1.08;;;18.60;54.30;;;;;;5113124;28;20043;-10
2022/11/05 02:30:03;;;;;;;1.58;1.10;;;18.60;54.30;;;;;;5113002;28;20071;-10
2022/11/05 02:32:53;;;;;;;2.25;1.20;;;18.60;54.40;;;;;;5093664;28;20040;-9
2022/11/05 02:35:43;;;;;;;1.43;1.00;;;18.60;54.30;;;;;;5113129;28;20058;-9
2022/11/05 02:38:14;;;;;;;1.30;1.20;;;18.60;54.30;;;;;;5113106;28;20763;-10
2022/11/05 02:40:58;;;;;;;1.30;1.13;;;18.60;54.30;;;;;;5112850;28;20100;-10
2022/11/05 02:43:44;;;;;;;1.30;1.20;;;18.60;54.30;;;;;;5113193;28;20113;-10
2022/11/05 02:46:26;;;;;;;1.10;0.93;;;18.60;54.30;;;;;;5112829;28;20526;-10
2022/11/05 02:49:10;;;;;;;1.45;1.30;;;18.60;54.30;;;;;;5112550;28;20384;-10
2022/11/05 02:51:57;;;;;;;1.23;0.93;;;18.60;54.40;;;;;;5112857;28;20051;-9
2022/11/05 02:54:34;;;;;;;2.08;1.20;;;18.60;54.30;;;;;;5112860;28;20135;-9
2022/11/05 02:57:02;;;;;;;1.83;1.20;;;18.60;54.30;;;;;;5112926;28;20047;-10
2022/11/05 02:59:27;;;;;;;1.13;0.93;;;18.60;54.30;;;;;;5112460;28;20051;-10
2022/11/05 03:01:54;;;;;;;1.27;1.00;;;18.60;54.30;;;;;;5112750;28;20048;-10
2022/11/05 03:04:22;;;;;;;1.70;1.20;;;18.60;54.30;;;;;;5112494;28;20040;-10
2022/11/05 03:06:59;;;;;;;1.83;1.20;;;18.60;54.30;;;;;;5112650;28;20096;-10
2022/11/05 03:09:46;;;;;;;1.85;1.17;;;18.60;54.30;;;;;;5112629;28;20120;-10
2022/11/05 03:12:38;;;;;;;1.35;1.10;;;18.60;54.30;;;;;;5112986;28;20095;-10
2022/11/05 03:15:33;;;;;;;1.40;1.10;;;18.60;54.30;;;;;;5112895;28;20054;-10
2022/11/05 03:18:47;;;;;;;1.38;1.17;;;18.60;54.30;;;;;;5112379;28;20113;-10
2022/11/05 03:21:30;;;;;;;1.85;1.13;;;18.60;54.80;;;;;;5108816;28;20047;-10
2022/11/05 03:24:01;;;;;;;1.85;1.25;;;18.60;54.30;;;;;;5112629;28;20052;-12
2022/11/05 03:26:40;;;;;;;1.33;1.10;;;18.60;54.30;;;;;;5112410;28;20044;-10
2022/11/05 03:29:10;;;;;;;2.17;1.38;;;18.60;54.20;;;;;;5112168;28;20495;-10
2022/11/05 03:31:39;;;;;;;3.50;1.58;;;18.60;54.30;;;;;;5115965;28;20048;-10
2022/11/05 03:34:06;;;;;;;1.50;1.05;;;18.60;54.20;;;;;;5115995;28;20054;-10
2022/11/05 03:36:38;;;;;;;1.70;1.00;;;18.60;54.30;;;;;;5116172;28;20568;-10
2022/11/05 03:39:06;;;;;;;1.10;1.00;;;18.60;54.30;;;;;;5115751;28;20143;-10
2022/11/05 03:41:33;;;;;;;1.55;1.00;;;18.60;54.30;;;;;;5115981;28;20059;-10
2022/11/05 03:44:04;;;;;;;1.27;1.15;;;18.60;54.30;;;;;;5096037;28;20051;-10
2022/11/05 03:46:35;;;;;;;1.55;1.13;;;18.60;54.30;;;;;;5116083;28;20055;-10
2022/11/05 03:49:03;;;;;;;1.20;1.10;;;18.60;54.30;;;;;;5115699;28;20143;-10
2022/11/05 03:51:50;;;;;;;1.45;1.10;;;18.60;54.30;;;;;;5115961;28;20100;-10
2022/11/05 03:54:15;;;;;;;1.60;1.30;;;18.60;54.30;;;;;;5115569;28;20403;-10
2022/11/05 03:57:03;;;;;;;2.30;1.15;;;18.60;54.30;;;;;;5116121;28;20048;-10
2022/11/05 03:59:31;;;;;;;1.45;1.33;;;18.60;54.30;;;;;;5115597;28;20070;-10
2022/11/05 04:01:57;;;;;;;1.40;1.15;;;18.60;54.40;;;;;;5115476;28;20055;-10
2022/11/05 04:04:23;;;;;;;1.00;0.95;;;18.60;54.30;;;;;;5115861;28;20549;-10
2022/11/05 04:15:02;;;;;;;1.52;1.00;;;18.60;54.30;;;;;;5115595;28;20058;-10
2022/11/05 04:17:27;;;;;;;1.70;1.05;;;18.60;54.30;;;;;;5115009;28;20142;-10
2022/11/05 04:25:22;;;;;;;1.63;1.25;;;18.70;54.10;;;;;;5115045;28;20507;-10
2022/11/05 04:27:48;;;;;;;2.42;1.50;;;18.70;54.00;;;;;;5114911;28;20059;-10
2022/11/05 04:30:19;;;;;;;2.00;1.30;;;18.70;53.90;;;;;;5115447;28;20522;-10
2022/11/05 04:33:04;;;;;;;1.85;1.30;;;18.80;53.80;;;;;;5115394;28;20476;-10
2022/11/05 04:35:48;;;;;;;1.30;1.08;;;18.80;53.70;;;;;;5114904;28;20055;-10
2022/11/05 04:38:18;;;;;;;1.02;0.93;;;18.90;53.60;;;;;;5114841;28;20503;-10
2022/11/05 04:40:45;;;;;;;2.20;1.10;;;18.90;53.50;;;;;;5114779;28;20051;-10
2022/11/05 04:43:16;;;;;;;1.25;0.90;;;18.90;53.40;;;;;;5114643;28;20055;-10
2022/11/05 04:45:42;;;;;;;;;;;19.00;53.30;;;;;;5115175;28;20039;-10
2022/11/05 04:48:08;;;;;;;1.73;1.20;;;19.00;53.20;;;;;;5115033;28;19941;-10
2022/11/05 04:50:33;;;;;;;1.60;1.30;;;19.00;53.10;;;;;;5114730;28;20058;-10
2022/11/05 04:52:59;;;;;;;1.50;1.23;;;19.00;53.00;;;;;;5115107;28;20046;-10
2022/11/05 04:55:26;;;;;;;2.75;1.25;;;19.00;53.00;;;;;;5114845;28;20062;-10
2022/11/05 04:57:52;;;;;;;2.22;1.10;;;19.10;53.00;;;;;;5114570;28;20087;-10
2022/11/05 05:00:20;;;;;;;1.50;1.08;;;19.10;52.90;;;;;;5096248;28;20108;-10
2022/11/05 05:02:46;;;;;;;1.25;1.00;;;19.10;52.90;;;;;;5114431;28;20051;-10
2022/11/05 05:05:12;;;;;;;2.35;1.23;;;19.20;52.80;;;;;;5114420;28;20419;-10
2022/11/05 05:07:38;;;;;;;2.03;1.50;;;19.20;52.80;;;;;;5114379;28;20112;-10
2022/11/05 05:10:06;;;;;;;1.50;1.23;;;19.20;52.70;;;;;;5114357;28;20470;-10
2022/11/05 05:12:33;;;;;;;1.88;1.15;;;19.20;52.70;;;;;;5114325;28;20119;-10
2022/11/05 05:14:59;;;;;;;1.70;1.27;;;19.20;52.60;;;;;;5114375;28;20488;-10
2022/11/05 05:17:24;;;;;;;1.17;1.08;;;19.20;52.70;;;;;;5114504;28;20046;-10
2022/11/05 05:22:34;;;;;;;1.33;1.10;;;19.20;52.60;;;;;;5114456;28;20096;-10
2022/11/05 05:25:00;;;;;;;1.60;1.30;;;19.20;52.60;;;;;;5114094;28;20142;-10
2022/11/05 05:27:28;;;;;;;1.20;1.10;;;19.20;52.70;;;;;;5114021;28;20059;-10
2022/11/05 05:29:55;;;;;;;1.55;1.20;;;19.20;52.70;;;;;;5114068;28;20050;-10
2022/11/05 05:32:21;;;;;;;2.15;1.38;;;19.20;52.70;;;;;;5114088;28;20062;-10
2022/11/05 05:34:47;;;;;;;2.13;1.20;;;19.10;52.70;;;;;;5114330;28;20051;-10
2022/11/05 05:37:12;;;;;;;1.80;1.20;;;19.20;52.80;;;;;;5113829;28;20055;-10
2022/11/05 05:39:38;;;;;;;1.25;1.05;;;19.10;52.80;;;;;;5113907;28;20051;-10
2022/11/05 05:42:03;;;;;;;1.60;1.27;;;19.10;52.90;;;;;;5114391;28;20153;-10
2022/11/05 05:44:29;;;;;;;1.00;0.90;;;19.10;53.00;;;;;;5114337;28;20096;-10
2022/11/05 05:46:54;;;;;;;1.58;1.00;;;19.00;53.00;;;;;;5113663;28;20134;-10
2022/11/05 05:49:20;;;;;;;1.30;1.10;;;19.00;53.00;;;;;;5113944;28;20055;-10
2022/11/05 05:51:48;;;;;;;1.95;1.13;;;19.00;53.00;;;;;;5113743;28;20048;-10
2022/11/05 05:54:14;;;;;;;1.35;0.90;;;19.10;53.00;;;;;;5113525;28;20071;-10
2022/11/05 05:56:42;;;;;;;1.73;1.00;;;19.00;52.90;;;;;;5113950;28;20090;-10
2022/11/05 05:59:07;;;;;;;1.58;1.00;;;19.10;52.90;;;;;;5113599;28;20514;-10
2022/11/05 06:01:33;;;;;;;1.40;1.30;;;19.10;52.90;;;;;;5113563;28;20074;-10
2022/11/05 06:03:58;;;;;;;1.67;1.33;;;19.00;52.90;;;;;;5113480;28;20457;-10
2022/11/05 06:06:24;;;;;;;1.85;1.45;;;19.00;53.10;;;;;;5113737;28;20047;-10
2022/11/05 06:08:50;;;;;;;2.08;1.35;;;19.00;53.20;;;;;;5113802;28;20059;-10
2022/11/05 06:11:16;;;;;;;1.02;0.90;;;19.00;53.30;;;;;;5113495;28;20040;-10
2022/11/05 06:13:43;;;;;;;1.85;1.38;;;18.90;53.30;;;;;;5113781;28;20100;-10
2022/11/05 06:16:10;;;;;;;1.15;0.95;;;18.90;53.30;;;;;;5113413;28;20059;-10
2022/11/05 06:18:36;;;;;;;1.13;1.00;;;18.90;53.40;;;;;;5113223;28;20495;-10
2022/11/05 06:21:04;;;;;;;1.02;0.90;;;18.90;53.30;;;;;;5113146;28;20054;-10
2022/11/05 06:23:31;;;;;;;1.55;1.17;;;18.90;53.30;;;;;;5112945;28;20055;-10
2022/11/05 06:26:01;;;;;;;1.80;1.40;;;18.90;53.30;;;;;;5113356;28;20052;-10
2022/11/05 06:28:28;;;;;;;1.30;1.20;;;18.90;53.20;;;;;;5113364;28;20063;-10
2022/11/05 06:30:54;;;;;;;1.05;0.95;;;18.90;53.20;;;;;;5112794;28;20510;-10
2022/11/05 06:33:19;;;;;;;1.13;1.00;;;19.00;53.10;;;;;;5112890;28;20056;-10
2022/11/05 06:35:45;;;;;;;2.03;1.30;;;19.00;53.10;;;;;;5112903;28;20060;-10
2022/11/05 06:38:11;;;;;;;1.45;1.20;;;19.00;53.00;;;;;;5112949;28;20380;-10
2022/11/05 06:40:36;;;;;;;1.23;1.13;;;19.00;53.00;;;;;;5112797;28;20147;-10
2022/11/05 06:43:02;;;;;;;1.48;1.30;;;19.10;53.00;;;;;;5113273;28;20055;-10
2022/11/05 06:45:27;;;;;;;1.42;1.00;;;19.10;52.90;;;;;;5111604;28;20097;-10
2022/11/05 06:47:57;;;;;;;1.15;0.93;;;19.10;52.80;;;;;;5113135;28;20135;-10
2022/11/05 06:50:24;;;;;;;1.00;0.88;;;19.20;52.80;;;;;;5113228;28;20044;-10
2022/11/05 06:52:58;;;;;;;1.50;1.40;;;19.20;52.80;;;;;;5112741;28;20056;-10
2022/11/05 06:55:25;;;;;;;2.88;1.17;;;19.20;52.70;;;;;;5113307;28;20527;-10
2022/11/05 06:57:50;;;;;;;1.48;1.27;;;19.20;52.60;;;;;;5112504;28;20059;-10
2022/11/05 07:00:17;;;;;;;2.22;1.20;;;19.30;52.60;;;;;;5112380;28;20051;-10
2022/11/05 07:02:43;;;;;;;1.38;1.10;;;19.30;52.40;;;;;;5112478;28;20088;-10
2022/11/05 07:05:10;;;;;;;1.83;1.20;;;19.40;52.30;;;;;;5114217;28;20134;-10
2022/11/05 07:07:36;;;;;;;1.95;1.20;;;19.40;52.10;;;;;;5116264;28;20134;-10
2022/11/05 07:10:04;;;;;;;1.17;0.95;;;19.50;52.10;;;;;;5115687;28;20057;-10
2022/11/05 07:12:30;;;;;;;1.70;1.23;;;19.50;51.90;;;;;;5115975;28;20538;-10
2022/11/05 07:14:56;;;;;;;1.98;1.13;;;19.60;51.80;;;;;;5115699;28;20134;-10
2022/11/05 07:17:22;;;;;;;1.70;1.30;;;19.50;51.70;;;;;;5115772;28;20074;-10
2022/11/05 07:19:47;;;;;;;1.63;1.13;;;19.50;51.70;;;;;;5115610;28;20063;-10
2022/11/05 07:22:13;;;;;;;1.70;1.27;;;19.50;51.80;;;;;;5115847;28;20051;-10
2022/11/05 07:24:39;;;;;;;1.38;1.00;;;19.50;51.70;;;;;;5115728;28;20131;-10
2022/11/05 07:27:04;;;;;;;1.35;1.05;;;19.60;51.80;;;;;;5115773;28;20051;-10
2022/11/05 07:29:30;;;;;;;1.15;1.05;;;19.50;51.70;;;;;;5115472;28;20086;-10
2022/11/05 07:31:56;;;;;;;1.00;0.88;;;19.50;51.70;;;;;;5115467;28;20043;-10
2022/11/05 07:34:21;;;;;;;1.42;1.17;;;19.60;51.70;;;;;;5115457;28;20083;-10
2022/11/05 07:36:47;;;;;;;1.73;1.33;;;19.60;51.70;;;;;;5115985;28;20047;-10
2022/11/05 07:39:12;;;;;;;1.58;1.05;;;19.60;51.70;;;;;;5115755;28;20535;-10
2022/11/05 07:41:38;;;;;;;1.08;0.98;;;19.60;51.70;;;;;;5115958;28;20143;-10
2022/11/05 07:44:03;;;;;;;1.30;1.20;;;19.50;51.80;;;;;;5115258;28;20500;-10
2022/11/05 07:46:29;;;;;;;2.03;1.15;;;19.50;51.90;;;;;;5115564;28;20142;-10
2022/11/05 07:48:55;;;;;;;1.50;1.00;;;19.40;52.00;;;;;;5115238;28;20060;-10
2022/11/05 07:51:21;;;;;;;1.45;1.10;;;19.40;52.00;;;;;;5115264;28;20047;-10
2022/11/05 07:53:48;;;;;;;1.30;1.10;;;19.50;52.00;;;;;;5115375;28;20074;-10
2022/11/05 07:56:15;;;;;;;1.10;0.90;;;19.50;52.00;;;;;;5115277;28;20071;-10
2022/11/05 07:58:42;;;;;;;1.17;1.08;;;19.40;52.00;;;;;;5115093;28;20110;-10
2022/11/05 08:01:08;;;;;;;1.08;0.98;;;19.50;52.10;;;;;;5115366;28;20047;-10
2022/11/05 08:03:33;;;;;;;1.27;1.08;;;19.40;52.00;;;;;;5114863;28;20051;-10
2022/11/05 08:05:59;;;;;;;1.40;1.13;;;19.40;52.10;;;;;;5115434;28;20387;-10
2022/11/05 08:08:25;;;;;;;1.25;1.10;;;19.40;52.00;;;;;;5114712;28;20054;-10
2022/11/05 08:10:50;;;;;;;1.75;1.10;;;19.40;52.10;;;;;;5115189;28;20052;-10
2022/11/05 08:13:17;;;;;;;2.03;1.38;;;19.40;52.60;;;;;;5115147;28;20445;-10
2022/11/05 08:15:43;;;;;;;1.10;1.00;;;19.40;52.00;;;;;;5114438;28;20127;-10
2022/11/05 08:18:16;;;;;;;1.77;1.20;;;19.40;52.10;;;;;;5114424;28;20082;-10
2022/11/05 08:20:44;;;;;;;1.70;1.05;;;19.40;52.10;;;;;;5114574;28;20055;-10
2022/11/05 08:23:10;;;;;;;1.20;1.10;;;19.40;52.20;;;;;;5114775;28;20058;-10
2022/11/05 08:25:35;;;;;;;1.25;1.08;;;19.40;52.60;;;;;;5115341;28;20051;-10
2022/11/05 08:28:04;;;;;;;1.40;1.00;;;19.40;52.20;;;;;;5115192;28;20056;-10
2022/11/05 08:30:31;;;;;;;1.70;1.27;;;19.30;52.20;;;;;;5114568;28;20059;-10
2022/11/05 08:32:58;;;;;;;1.52;1.15;;;19.30;52.20;;;;;;5114701;28;20106;-10
2022/11/05 08:35:26;;;;;;;1.00;0.90;;;19.40;52.20;;;;;;5114894;28;20139;-10
2022/11/05 08:38:01;;;;;;;1.33;1.05;;;19.40;52.20;;;;;;5114827;28;20055;-10
2022/11/05 08:40:28;;;;;;;2.15;1.20;;;19.40;52.20;;;;;;5114564;28;20094;-10
2022/11/05 08:42:56;;;;;;;0.95;0.95;;;19.30;52.20;;;;;;5114545;28;20079;-10
2022/11/05 08:45:23;;;;;;;1.50;1.15;;;19.30;52.20;;;;;;5114296;28;20149;-10
2022/11/05 08:47:49;;;;;;;2.13;1.02;;;19.30;52.70;;;;;;5114149;28;20075;-10
2022/11/05 08:50:15;;;;;;;1.98;1.05;;;19.30;52.30;;;;;;5114920;28;20075;-10
2022/11/05 08:52:40;;;;;;;1.67;1.17;;;19.30;52.30;;;;;;5114305;28;20390;-10
2022/11/05 08:55:06;;;;;;;2.38;1.00;;;19.30;52.40;;;;;;5114484;28;20082;-10
2022/11/05 08:57:32;;;;;;;1.25;1.13;;;19.30;52.40;;;;;;5113974;28;20047;-10
2022/11/05 08:59:57;;;;;;;2.17;1.15;;;19.30;52.30;;;;;;5114124;28;20047;-10
2022/11/05 09:02:23;;;;;;;1.20;1.10;;;19.30;52.30;;;;;;5114026;28;20048;-10
2022/11/05 09:04:49;;;;;;;1.60;1.00;;;19.30;52.30;;;;;;5114129;28;20051;-10
2022/11/05 09:07:14;;;;;;;2.35;1.40;;;19.30;52.40;;;;;;5114145;28;20059;-10
2022/11/05 09:09:40;;;;;;;1.77;1.10;;;19.20;52.50;;;;;;5114122;28;20055;-10
2022/11/05 09:12:05;;;;;;;1.30;1.13;;;19.20;52.40;;;;;;5114409;28;20392;-10
2022/11/05 09:14:31;;;;;;;2.90;1.38;;;19.30;52.40;;;;;;5113586;28;20051;-10
2022/11/05 09:16:57;;;;;;;1.80;1.02;;;19.30;52.30;;;;;;5113662;28;20051;-10
2022/11/05 09:19:23;;;;;;;1.88;1.30;;;19.30;52.40;;;;;;5114014;28;20054;-10
2022/11/05 09:21:48;;;;;;;2.67;1.48;;;19.30;52.40;;;;;;5113676;28;20039;-10
2022/11/05 09:24:14;;;;;;;1.10;1.00;;;19.30;52.90;;;;;;5113476;28;20105;-10
2022/11/05 09:26:40;;;;;;;1.13;1.00;;;19.20;52.40;;;;;;5113452;28;20475;-10
2022/11/05 09:29:05;;;;;;;1.85;1.15;;;19.20;52.50;;;;;;5112696;28;20407;-10
2022/11/05 09:31:31;;;;;;;1.73;1.17;;;19.20;52.50;;;;;;5095475;28;20055;-10
2022/11/05 09:33:56;;;;;;;2.70;1.30;;;19.20;52.60;;;;;;5113651;28;20059;-10
2022/11/05 09:36:22;;;;;;;1.13;1.02;;;19.20;52.60;;;;;;5113240;28;20071;-10
2022/11/05 09:38:47;;;;;;;3.55;1.58;;;19.20;52.60;;;;;;5113189;28;20067;-10
2022/11/05 09:41:27;;;;;;;1.98;1.30;;;19.20;52.60;;;;;;5113287;28;20051;-10
2022/11/05 09:43:58;;;;;;;3.03;1.55;;;19.20;52.60;;;;;;5113448;28;20043;-10
2022/11/05 09:46:25;;;;;;;2.05;1.02;;;19.20;52.60;;;;;;5113774;28;20048;-10
2022/11/05 09:48:56;;;;;;;3.58;1.45;;;19.20;52.60;;;;;;5111076;28;20048;-10
2022/11/05 09:51:22;;;;;;;2.30;1.30;;;19.20;52.60;;;;;;5113429;28;20058;-10
2022/11/05 09:53:48;;;;;;;1.08;0.90;;;19.20;52.50;;;;;;5113349;28;20059;-10
2022/11/05 09:56:23;;;;;;;1.58;0.90;;;19.20;52.60;;;;;;5113536;28;20222;-10
2022/11/05 09:58:58;;;;;;;1.50;1.27;;;19.20;52.50;;;;;;5112860;28;20059;-10
2022/11/05 10:01:30;;;;;;;1.35;1.10;;;19.20;52.50;;;;;;5112841;28;20561;-10
2022/11/05 10:03:59;;;;;;;3.60;1.20;;;19.30;52.50;;;;;;5113114;28;20052;-10
2022/11/05 10:06:26;;;;;;;3.30;1.52;;;19.20;52.40;;;;;;5113595;28;20047;-10
2022/11/05 10:09:00;;;;;;;3.08;1.55;;;19.20;52.40;;;;;;5113297;28;20055;-10
2022/11/05 10:11:54;;;;;;;1.58;1.33;;;19.30;52.30;;;;;;5113192;28;20055;-10
2022/11/05 10:14:25;;;;;;;2.03;1.20;;;19.30;52.30;;;;;;5112895;28;20150;-10
2022/11/05 10:17:02;;;;;;;1.48;1.02;;;19.30;52.30;;;;;;5113061;28;20047;-10
2022/11/05 10:19:43;;;;;;;2.10;1.10;;;19.30;52.40;;;;;;5113200;28;20043;-10
2022/11/05 10:22:15;;;;;;;2.45;1.23;;;19.30;52.30;;;;;;5112946;28;20059;-10
2022/11/05 10:24:45;;;;;;;1.70;1.20;;;19.30;52.20;;;;;;5113226;28;20086;-10
2022/11/05 10:27:17;;;;;;;1.65;1.00;;;19.30;52.30;;;;;;5113137;28;20047;-10
2022/11/05 10:29:44;;;;;;;2.83;1.45;;;19.30;52.30;;;;;;5109634;28;20051;-10
2022/11/05 10:32:15;;;;;;;1.88;1.20;;;19.30;52.30;;;;;;5112816;28;20055;-10
2022/11/05 10:34:42;;;;;;;1.90;1.20;;;19.30;52.50;;;;;;5112711;28;20048;-10
2022/11/05 10:37:09;;;;;;;1.80;1.15;;;19.30;52.40;;;;;;5112876;28;20441;-10
2022/11/05 10:39:35;;;;;;;1.38;1.25;;;19.30;52.40;;;;;;5112006;28;20051;-10
2022/11/05 10:42:29;;;;;;;2.75;1.42;;;19.30;52.40;;;;;;5113102;28;20127;-10
2022/11/05 10:45:16;;;;;;;1.58;1.20;;;19.30;52.40;;;;;;5112456;28;20073;-10
2022/11/05 10:48:05;;;;;;;2.38;1.50;;;19.30;52.40;;;;;;5112469;28;20086;-10
2022/11/05 10:50:31;;;;;;;1.95;1.27;;;19.30;52.40;;;;;;5112402;28;20059;-10
2022/11/05 10:52:58;;;;;;;1.85;1.15;;;19.30;52.30;;;;;;5112165;28;20095;-10
2022/11/05 10:55:26;;;;;;;2.08;1.52;;;19.30;52.30;;;;;;5112406;28;20051;-10
2022/11/05 10:57:52;;;;;;;1.55;0.95;;;19.30;52.40;;;;;;5112657;28;20047;-10
2022/11/05 11:00:21;;;;;;;1.95;1.35;;;19.30;52.40;;;;;;5112680;28;20055;-10
2022/11/05 11:02:51;;;;;;;1.70;1.40;;;19.30;52.40;;;;;;5112183;28;20376;-10
2022/11/05 11:05:34;;;;;;;1.93;1.00;;;19.20;52.40;;;;;;5112516;28;20134;-10
2022/11/05 11:08:22;;;;;;;1.65;1.30;;;19.20;52.40;;;;;;5112252;28;20074;-10
2022/11/05 11:10:51;;;;;;;2.03;1.30;;;19.20;52.40;;;;;;5112155;28;20052;-10
2022/11/05 11:13:29;;;;;;;1.30;1.02;;;19.30;52.40;;;;;;5112089;28;20403;-10
2022/11/05 11:16:12;;;;;;;1.80;1.25;;;19.30;52.40;;;;;;5111897;28;20103;-10
2022/11/05 11:18:42;;;;;;;1.17;1.08;;;19.30;52.40;;;;;;5112156;28;20063;-10
2022/11/05 11:21:18;;;;;;;1.65;1.00;;;19.30;52.40;;;;;;5111972;28;20040;-10
2022/11/05 11:24:03;;;;;;;1.70;1.40;;;19.30;52.40;;;;;;5112315;28;20067;-10
2022/11/05 11:26:36;;;;;;;1.15;1.02;;;19.20;52.40;;;;;;5112000;28;20865;-10
2022/11/05 11:29:24;;;;;;;3.17;1.25;;;19.20;52.40;;;;;;5112088;28;20410;-10
2022/11/05 11:31:54;;;;;;;2.70;1.30;;;19.20;52.50;;;;;;5111803;28;20074;-10
2022/11/05 11:34:32;;;;;;;1.40;0.98;;;19.20;52.50;;;;;;5111696;28;20403;-10
2022/11/05 11:37:06;;;;;;;2.63;1.42;;;19.20;52.50;;;;;;5111837;28;20117;-10
2022/11/05 11:39:32;;;;;;;1.60;1.05;;;19.20;52.50;;;;;;5111837;28;20056;-10
2022/11/05 11:42:05;;;;;;;1.75;1.27;;;19.20;52.50;;;;;;5111979;28;20399;-10
2022/11/05 11:44:43;;;;;;;1.17;1.08;;;19.20;52.50;;;;;;5111748;28;20039;-10
2022/11/05 11:47:13;;;;;;;1.90;1.30;;;19.20;52.50;;;;;;5111540;28;20483;-10
2022/11/05 11:49:49;;;;;;;3.65;1.75;;;19.20;52.60;;;;;;5111657;28;20368;-10
2022/11/05 11:52:26;;;;;;;2.42;1.20;;;19.20;52.50;;;;;;5114721;28;20056;-10
2022/11/05 11:54:52;;;;;;;1.23;1.00;;;19.20;52.50;;;;;;5115495;28;20047;-10
2022/11/05 11:57:24;;;;;;;1.20;1.10;;;19.20;52.50;;;;;;5114877;28;20461;-10
2022/11/05 11:59:50;;;;;;;;;;;19.20;52.50;;;;;;5115727;28;20083;-10
2022/11/05 12:02:53;;;;;;;1.95;1.30;;;19.20;52.60;;;;;;5115021;28;19915;-10
2022/11/05 12:05:34;;;;;;;1.20;1.10;;;19.20;52.60;;;;;;5114814;28;20046;-10
2022/11/05 12:08:26;;;;;;;1.95;1.40;;;19.20;52.60;;;;;;5114888;28;20058;-10
2022/11/05 12:11:28;;;;;;;1.80;1.30;;;19.20;52.70;;;;;;5114752;28;20141;-10
2022/11/05 12:14:03;;;;;;;1.35;1.20;;;19.10;52.60;;;;;;5061736;28;20055;-10
2022/11/05 12:16:37;;;;;;;1.38;1.23;;;19.10;52.60;;;;;;5114778;28;20139;-10
2022/11/05 12:19:22;;;;;;;2.53;1.40;;;19.10;52.70;;;;;;5114533;28;20045;-10
2022/11/05 12:21:48;;;;;;;1.35;1.17;;;19.10;52.60;;;;;;5114935;28;20138;-10
2022/11/05 12:24:50;;;;;;;1.98;1.10;;;19.10;52.70;;;;;;5115044;28;20074;-10
2022/11/05 12:27:27;;;;;;;1.25;1.05;;;19.10;52.70;;;;;;5115106;28;20404;-10
2022/11/05 12:30:02;;;;;;;1.92;1.10;;;19.10;52.70;;;;;;5115011;28;20059;-11
2022/11/05 12:33:03;;;;;;;1.70;1.30;;;19.10;52.60;;;;;;5114975;28;20051;-10
2022/11/05 12:36:01;;;;;;;3.63;0.93;;;19.10;52.60;;;;;;5024756;28;20438;-11
2022/11/05 12:38:44;;;;;;;1.58;1.40;;;19.10;52.70;;;;;;5114712;28;20059;-10
2022/11/05 12:41:17;;;;;;;1.35;1.10;;;19.10;52.60;;;;;;5115310;28;20051;-10
2022/11/05 12:44:04;;;;;;;2.65;1.83;;;19.10;52.60;;;;;;5115217;28;20043;-10
2022/11/05 12:47:07;;;;;;;2.92;1.08;;;19.10;52.60;;;;;;5115417;28;20047;-10
2022/11/05 12:49:59;;;;;;;3.00;1.20;;;19.10;52.70;;;;;;5114702;28;20040;-10
2022/11/05 12:52:38;;;;;;;1.52;1.17;;;19.10;52.60;;;;;;5114756;28;20134;-10
2022/11/05 12:55:25;;;;;;;1.55;1.25;;;19.10;52.60;;;;;;5115003;28;20043;-10
2022/11/05 12:57:55;;;;;;;1.52;1.10;;;19.10;52.60;;;;;;5114940;28;20050;-10
2022/11/05 13:00:23;;;;;;;1.00;0.90;;;19.10;52.60;;;;;;5114707;28;20048;-10
2022/11/05 13:03:01;;;;;;;1.48;1.15;;;19.10;52.70;;;;;;5113794;28;20057;-10
2022/11/05 13:05:35;;;;;;;1.58;1.10;;;19.00;52.60;;;;;;5114449;28;20062;-10
2022/11/05 13:08:08;;;;;;;1.45;1.20;;;19.10;52.70;;;;;;5114840;28;20146;-10
2022/11/05 13:10:51;;;;;;;1.40;1.05;;;19.00;52.60;;;;;;5110715;28;20043;-10
2022/11/05 13:13:32;;;;;;;1.63;1.10;;;19.00;52.70;;;;;;5114602;28;20058;-10
2022/11/05 13:16:11;;;;;;;1.45;1.10;;;19.00;52.70;;;;;;5114268;28;20051;-10
2022/11/05 13:18:48;;;;;;;2.53;1.15;;;19.00;52.70;;;;;;5114144;28;20055;-11
2022/11/05 13:21:16;;;;;;;1.40;1.23;;;19.00;52.70;;;;;;5114591;28;20621;-10
2022/11/05 13:23:50;;;;;;;1.70;1.30;;;19.00;52.70;;;;;;5114777;28;20493;-10
2022/11/05 13:26:25;;;;;;;1.67;1.20;;;19.10;52.70;;;;;;5114014;28;20047;-10
2022/11/05 13:29:08;;;;;;;1.52;1.33;;;19.00;52.70;;;;;;5114006;28;20533;-10
2022/11/05 13:31:42;;;;;;;1.85;1.30;;;19.00;52.70;;;;;;5114333;28;20055;-10
2022/11/05 13:34:11;;;;;;;1.95;1.27;;;19.00;52.70;;;;;;5114066;28;20415;-10
2022/11/05 13:40:00;;;;;;;2.17;1.02;;;19.00;52.60;;;;;;5031256;28;20080;-10
2022/11/05 13:42:34;;;;;;;2.13;1.17;;;19.00;52.60;;;;;;5101903;28;20055;-10
2022/11/05 13:45:33;;;;;;;2.13;1.20;;;19.00;52.70;;;;;;5113843;28;20054;-10
2022/11/05 13:48:17;;;;;;;1.95;1.40;;;19.00;52.70;;;;;;5113434;28;20055;-10
2022/11/05 13:51:01;;;;;;;2.53;1.10;;;19.00;52.70;;;;;;5113745;28;20506;-10
2022/11/05 13:54:11;;;;;;;2.25;1.23;;;19.00;52.70;;;;;;5113543;28;20056;-10